Time;durP1;ratioP1;P1;durP2;ratioP2;P2;SDS_P1;SDS_P2;PMS_P1;PMS_P2;Temp;Humidity;BMP_temperature;BMP_pressure;BME280_temperature;BME280_humidity;BME280_pressure;Samples;Min_cycle;Max_cycle;Signal;HPM_P1;HPM_P2
2022/10/02 00:01:12;;;;;;;13.32;8.70;;;;;;;;;;4990918;28;20376;-76
2022/10/02 00:03:41;;;;;;;14.37;9.33;;;;;;;;;;4995600;28;20072;-76
2022/10/02 00:06:24;;;;;;;10.65;8.60;;;;;;;;;;4995607;28;20284;-76
2022/10/02 00:08:53;;;;;;;11.68;8.18;;;;;;;;;;4992993;28;20101;-76
2022/10/02 00:11:22;;;;;;;6.28;3.53;;;;;;;;;;4996188;28;20042;-76
2022/10/02 00:13:57;;;;;;;4.78;1.90;;;;;;;;;;5000303;28;20542;-76
2022/10/02 00:16:23;;;;;;;4.80;1.85;;;;;;;;;;5001418;28;20131;-77
2022/10/02 00:18:49;;;;;;;3.03;1.48;;;;;;;;;;4999395;28;20038;-76
2022/10/02 00:21:18;;;;;;;8.80;4.70;;;;;;;;;;4999187;28;20030;-76
2022/10/02 00:23:56;;;;;;;7.45;5.30;;;;;;;;;;5000142;28;20105;-77
2022/10/02 00:26:32;;;;;;;10.70;7.20;;;;;;;;;;4998375;28;20041;-76
2022/10/02 00:29:17;;;;;;;10.73;7.75;;;;;;;;;;4989256;28;20613;-76
2022/10/02 00:31:58;;;;;;;10.15;6.65;;;;;;;;;;4998932;28;20113;-76
2022/10/02 00:34:28;;;;;;;9.15;6.10;;;;;;;;;;4992029;28;20419;-76
2022/10/02 00:36:57;;;;;;;9.60;6.53;;;;;;;;;;5002329;28;20526;-76
2022/10/02 00:39:29;;;;;;;8.02;5.53;;;;;;;;;;5008197;28;20021;-76
2022/10/02 00:42:17;;;;;;;12.60;8.07;;;;;;;;;;5004822;28;20049;-76
2022/10/02 00:44:52;;;;;;;6.45;4.85;;;;;;;;;;5003451;28;20521;-76
2022/10/02 00:47:30;;;;;;;8.93;6.03;;;;;;;;;;5001942;28;20038;-76
2022/10/02 00:50:03;;;;;;;10.35;6.57;;;;;;;;;;4998144;28;20042;-76
2022/10/02 00:52:32;;;;;;;7.97;5.40;;;;;;;;;;5007127;28;20048;-76
2022/10/02 00:55:09;;;;;;;7.82;4.80;;;;;;;;;;5000875;28;20040;-76
2022/10/02 00:57:35;;;;;;;3.50;1.92;;;;;;;;;;5003789;28;20073;-76
2022/10/02 01:00:13;;;;;;;2.85;1.50;;;;;;;;;;4999278;28;20125;-76
2022/10/02 01:02:48;;;;;;;3.75;1.85;;;;;;;;;;5000170;28;20439;-76
2022/10/02 01:05:15;;;;;;;5.03;3.55;;;;;;;;;;5007234;28;20537;-76
2022/10/02 01:07:42;;;;;;;8.35;5.72;;;;;;;;;;5004743;28;20038;-76
2022/10/02 01:10:09;;;;;;;8.48;5.82;;;;;;;;;;5003838;28;20503;-76
2022/10/02 01:12:36;;;;;;;12.95;7.70;;;;;;;;;;4999038;28;20038;-76
2022/10/02 01:15:10;;;;;;;9.15;6.38;;;;;;;;;;4993720;28;20154;-76
2022/10/02 01:17:36;;;;;;;9.05;6.20;;;;;;;;;;5005396;28;20034;-76
2022/10/02 01:20:04;;;;;;;12.52;6.20;;;;;;;;;;5005193;28;20026;-76
2022/10/02 01:22:30;;;;;;;13.45;8.65;;;;;;;;;;5006098;28;20149;-76
2022/10/02 01:24:57;;;;;;;10.63;7.43;;;;;;;;;;5000880;28;20135;-77
2022/10/02 01:27:24;;;;;;;9.40;5.47;;;;;;;;;;4998930;28;20116;-76
2022/10/02 01:30:00;;;;;;;7.75;5.57;;;;;;;;;;4999774;28;20507;-76
2022/10/02 01:32:30;;;;;;;7.03;4.75;;;;;;;;;;4998884;28;20042;-76
2022/10/02 01:34:56;;;;;;;7.35;4.38;;;;;;;;;;4992821;28;20046;-76
2022/10/02 01:37:25;;;;;;;8.20;4.50;;;;;;;;;;5002711;28;20034;-76
2022/10/02 01:39:51;;;;;;;7.05;4.07;;;;;;;;;;4996224;28;20034;-76
2022/10/02 01:42:17;;;;;;;7.90;4.70;;;;;;;;;;5001094;28;20041;-76
2022/10/02 01:44:44;;;;;;;8.38;5.72;;;;;;;;;;5005216;28;20061;-76
2022/10/02 01:47:12;;;;;;;15.02;6.38;;;;;;;;;;5002444;28;20048;-76
2022/10/02 01:49:44;;;;;;;9.88;5.85;;;;;;;;;;5001812;28;20033;-76
2022/10/02 01:52:10;;;;;;;7.80;5.65;;;;;;;;;;4999902;28;20034;-76
2022/10/02 01:54:42;;;;;;;9.35;5.97;;;;;;;;;;5000727;28;20031;-76
2022/10/02 01:57:26;;;;;;;7.75;5.78;;;;;;;;;;4999929;28;20026;-76
2022/10/02 02:00:07;;;;;;;10.93;6.05;;;;;;;;;;4999766;28;20030;-76
2022/10/02 02:02:33;;;;;;;9.20;6.32;;;;;;;;;;4997751;28;20072;-76
2022/10/02 02:05:02;;;;;;;8.75;6.15;;;;;;;;;;4999682;28;20053;-76
2022/10/02 02:07:34;;;;;;;7.55;5.55;;;;;;;;;;5001797;28;20160;-76
2022/10/02 02:10:04;;;;;;;10.32;5.35;;;;;;;;;;5002671;28;20823;-77
2022/10/02 02:12:38;;;;;;;10.90;6.63;;;;;;;;;;5007232;28;20391;-76
2022/10/02 02:15:07;;;;;;;7.95;6.00;;;;;;;;;;5005418;28;20769;-76
2022/10/02 02:17:40;;;;;;;5.57;3.67;;;;;;;;;;4996114;28;20870;-76
2022/10/02 02:20:08;;;;;;;4.07;1.95;;;;;;;;;;5007662;28;20022;-76
2022/10/02 02:22:38;;;;;;;6.85;4.18;;;;;;;;;;5001861;28;20038;-75
2022/10/02 02:25:08;;;;;;;3.35;1.60;;;;;;;;;;5003220;28;20116;-76
2022/10/02 02:27:38;;;;;;;2.75;1.00;;;;;;;;;;4999657;28;20048;-76
2022/10/02 02:30:06;;;;;;;4.82;2.60;;;;;;;;;;5003780;28;20044;-76
2022/10/02 02:32:35;;;;;;;8.38;6.03;;;;;;;;;;5001489;28;20069;-76
2022/10/02 02:35:04;;;;;;;7.80;5.22;;;;;;;;;;5001988;28;20045;-76
2022/10/02 02:37:33;;;;;;;11.20;6.43;;;;;;;;;;5000841;28;20130;-76
2022/10/02 02:40:01;;;;;;;8.93;5.82;;;;;;;;;;5000107;28;20056;-76
2022/10/02 02:42:32;;;;;;;8.27;4.63;;;;;;;;;;5002338;28;20049;-76
2022/10/02 02:45:01;;;;;;;8.98;5.22;;;;;;;;;;5002498;28;20574;-76
2022/10/02 02:47:31;;;;;;;7.05;4.13;;;;;;;;;;4996831;28;20052;-76
2022/10/02 02:50:03;;;;;;;2.40;0.93;;;;;;;;;;5005536;28;20510;-76
2022/10/02 02:52:30;;;;;;;1.23;0.70;;;;;;;;;;5007019;28;20030;-76
2022/10/02 02:55:00;;;;;;;1.73;0.57;;;;;;;;;;5000665;28;20044;-76
2022/10/02 02:57:29;;;;;;;3.55;1.95;;;;;;;;;;5000903;28;20112;-76
2022/10/02 02:59:56;;;;;;;5.07;2.85;;;;;;;;;;4996571;28;20036;-76
2022/10/02 03:02:22;;;;;;;4.90;3.20;;;;;;;;;;5001770;28;20395;-76
2022/10/02 03:04:48;;;;;;;5.93;3.13;;;;;;;;;;5003972;28;20054;-76
2022/10/02 03:07:16;;;;;;;7.18;4.57;;;;;;;;;;5006726;28;20042;-76
2022/10/02 03:09:47;;;;;;;9.40;5.18;;;;;;;;;;5002107;28;20034;-76
2022/10/02 03:12:12;;;;;;;6.82;3.80;;;;;;;;;;4998580;28;20035;-76
2022/10/02 03:14:38;;;;;;;7.03;3.83;;;;;;;;;;5001092;28;20028;-76
2022/10/02 03:17:07;;;;;;;10.43;3.70;;;;;;;;;;4997341;28;20030;-76
2022/10/02 03:19:40;;;;;;;1.63;0.40;;;;;;;;;;4995768;28;20072;-76
2022/10/02 03:22:18;;;;;;;1.48;0.30;;;;;;;;;;4998850;28;20038;-76
2022/10/02 03:24:48;;;;;;;0.80;0.28;;;;;;;;;;5002662;28;20037;-76
2022/10/02 03:27:14;;;;;;;2.45;0.50;;;;;;;;;;4999919;28;20050;-76
2022/10/02 03:29:45;;;;;;;1.98;0.75;;;;;;;;;;4998204;28;20499;-76
2022/10/02 03:32:13;;;;;;;0.60;0.40;;;;;;;;;;4996862;28;20121;-76
2022/10/02 03:34:39;;;;;;;0.93;0.40;;;;;;;;;;4993577;28;20026;-76
2022/10/02 03:37:06;;;;;;;3.50;0.98;;;;;;;;;;4999518;28;20045;-76
2022/10/02 03:39:32;;;;;;;8.65;5.93;;;;;;;;;;5002351;28;20037;-76
2022/10/02 03:41:58;;;;;;;8.57;5.05;;;;;;;;;;4998364;28;20038;-76
2022/10/02 03:44:24;;;;;;;5.10;3.35;;;;;;;;;;5003009;28;20104;-76
2022/10/02 03:46:50;;;;;;;1.85;0.93;;;;;;;;;;4994887;28;20208;-76
2022/10/02 03:49:16;;;;;;;2.28;0.70;;;;;;;;;;4995223;28;20109;-76
2022/10/02 03:51:43;;;;;;;1.98;0.73;;;;;;;;;;4992594;28;20041;-76
2022/10/02 03:54:13;;;;;;;0.75;0.40;;;;;;;;;;5001077;28;20621;-76
2022/10/02 03:56:55;;;;;;;1.98;0.50;;;;;;;;;;4998153;28;20112;-76
2022/10/02 03:59:29;;;;;;;0.82;0.30;;;;;;;;;;4999587;28;20034;-76
2022/10/02 04:01:57;;;;;;;1.15;0.30;;;;;;;;;;4998516;28;20651;-76
2022/10/02 04:04:30;;;;;;;3.40;1.83;;;;;;;;;;5000306;28;20037;-76
2022/10/02 04:07:02;;;;;;;6.70;3.22;;;;;;;;;;4998936;28;20034;-76
2022/10/02 04:09:39;;;;;;;5.60;2.20;;;;;;;;;;5002368;28;20034;-76
2022/10/02 04:12:11;;;;;;;4.75;2.63;;;;;;;;;;4992942;28;20936;-76
2022/10/02 04:14:44;;;;;;;4.45;2.47;;;;;;;;;;5000650;28;20080;-76
2022/10/02 04:17:19;;;;;;;7.55;3.42;;;;;;;;;;5001909;28;20030;-76
2022/10/02 04:19:49;;;;;;;3.28;1.65;;;;;;;;;;4997221;28;20030;-76
2022/10/02 04:22:18;;;;;;;2.90;1.20;;;;;;;;;;4995347;28;20046;-76
2022/10/02 04:24:51;;;;;;;1.65;0.73;;;;;;;;;;4998438;28;20157;-76
2022/10/02 04:27:36;;;;;;;1.20;0.55;;;;;;;;;;4998175;28;20046;-76
2022/10/02 04:30:07;;;;;;;1.75;0.73;;;;;;;;;;4995055;28;20096;-76
2022/10/02 04:32:35;;;;;;;2.40;1.00;;;;;;;;;;4995284;28;20361;-76
2022/10/02 04:35:01;;;;;;;8.40;2.80;;;;;;;;;;5002407;28;20041;-76
2022/10/02 04:37:30;;;;;;;5.72;3.25;;;;;;;;;;4998160;28;20037;-76
2022/10/02 04:39:59;;;;;;;4.90;2.05;;;;;;;;;;5000666;28;20034;-76
2022/10/02 04:42:28;;;;;;;2.45;1.30;;;;;;;;;;4997583;28;20148;-76
2022/10/02 04:44:54;;;;;;;2.95;1.13;;;;;;;;;;5001089;28;20038;-75
2022/10/02 04:47:23;;;;;;;6.07;2.70;;;;;;;;;;5000939;28;20460;-76
2022/10/02 04:49:56;;;;;;;7.88;3.63;;;;;;;;;;4999454;28;20550;-76
2022/10/02 04:52:22;;;;;;;6.15;2.72;;;;;;;;;;4998618;28;20140;-76
2022/10/02 04:54:54;;;;;;;5.15;2.97;;;;;;;;;;5002280;28;20034;-76
2022/10/02 04:57:32;;;;;;;4.47;2.67;;;;;;;;;;4996798;28;20058;-76
2022/10/02 05:00:13;;;;;;;3.88;1.30;;;;;;;;;;4998603;28;20040;-76
2022/10/02 05:02:58;;;;;;;4.15;0.70;;;;;;;;;;5002517;28;20486;-76
2022/10/02 05:05:42;;;;;;;0.88;0.40;;;;;;;;;;4995836;28;20045;-76
2022/10/02 05:08:41;;;;;;;1.23;0.30;;;;;;;;;;4997491;28;20494;-76
2022/10/02 05:11:39;;;;;;;2.17;0.35;;;;;;;;;;5011501;28;20408;-76
2022/10/02 05:14:14;;;;;;;2.10;0.57;;;;;;;;;;4975317;28;20372;-76
2022/10/02 05:16:58;;;;;;;1.83;0.85;;;;;;;;;;4996397;28;20081;-76
2022/10/02 05:19:30;;;;;;;2.08;0.70;;;;;;;;;;4997753;28;20120;-76
2022/10/02 05:21:56;;;;;;;;;;;;;;;;;;4998497;28;20494;-77
2022/10/02 05:24:33;;;;;;;3.10;1.40;;;;;;;;;;4999974;28;19921;-76
2022/10/02 05:27:25;;;;;;;5.40;1.80;;;;;;;;;;5003415;28;20168;-76
2022/10/02 05:30:08;;;;;;;4.90;2.05;;;;;;;;;;5005111;28;20046;-76
2022/10/02 05:32:37;;;;;;;3.45;1.40;;;;;;;;;;4996433;28;20369;-74
2022/10/02 05:35:23;;;;;;;2.40;0.75;;;;;;;;;;5004541;28;20487;-76
2022/10/02 05:37:56;;;;;;;1.48;0.70;;;;;;;;;;4997381;28;20121;-76
2022/10/02 05:40:28;;;;;;;1.50;0.73;;;;;;;;;;5002989;28;20068;-76
2022/10/02 05:43:06;;;;;;;2.78;0.88;;;;;;;;;;5001272;28;20045;-76
2022/10/02 05:45:32;;;;;;;3.55;1.65;;;;;;;;;;4999681;28;20030;-77
2022/10/02 05:48:13;;;;;;;7.30;3.25;;;;;;;;;;4999036;28;20046;-77
2022/10/02 05:50:40;;;;;;;9.45;4.72;;;;;;;;;;5002440;28;20061;-77
2022/10/02 05:53:31;;;;;;;5.97;3.40;;;;;;;;;;5003306;28;20049;-76
2022/10/02 05:55:59;;;;;;;9.93;3.70;;;;;;;;;;5003286;28;20045;-76
2022/10/02 05:58:40;;;;;;;6.30;2.75;;;;;;;;;;4996567;28;20045;-76
2022/10/02 06:01:11;;;;;;;4.35;2.20;;;;;;;;;;5001861;28;20085;-77
2022/10/02 06:03:56;;;;;;;5.30;2.95;;;;;;;;;;5000305;28;20337;-77
2022/10/02 06:06:30;;;;;;;6.07;2.10;;;;;;;;;;5001342;28;20191;-77
2022/10/02 06:08:59;;;;;;;3.17;1.67;;;;;;;;;;5001175;28;20053;-76
2022/10/02 06:11:34;;;;;;;2.90;1.48;;;;;;;;;;4998162;28;20041;-76
2022/10/02 06:14:21;;;;;;;1.73;0.80;;;;;;;;;;4995605;28;20054;-77
2022/10/02 06:17:02;;;;;;;2.17;0.82;;;;;;;;;;4999427;28;20407;-77
2022/10/02 06:19:49;;;;;;;2.88;1.10;;;;;;;;;;4995375;28;20037;-76
2022/10/02 06:22:18;;;;;;;5.57;2.10;;;;;;;;;;4995924;28;20085;-77
2022/10/02 06:24:44;;;;;;;3.05;1.20;;;;;;;;;;5002631;28;20061;-77
2022/10/02 06:27:12;;;;;;;1.10;0.50;;;;;;;;;;4999397;28;20041;-76
2022/10/02 06:29:50;;;;;;;1.98;0.85;;;;;;;;;;5003005;28;20065;-76
2022/10/02 06:32:24;;;;;;;2.17;0.93;;;;;;;;;;4999023;28;20042;-76
2022/10/02 06:34:50;;;;;;;3.88;1.98;;;;;;;;;;4998236;28;20129;-76
2022/10/02 06:37:19;;;;;;;6.65;2.70;;;;;;;;;;4997902;28;20077;-76
2022/10/02 06:40:03;;;;;;;2.95;1.60;;;;;;;;;;4997873;28;20034;-76
2022/10/02 06:42:39;;;;;;;4.20;2.15;;;;;;;;;;4994087;28;20061;-76
2022/10/02 06:45:13;;;;;;;4.35;0.88;;;;;;;;;;4998478;28;20042;-76
2022/10/02 06:47:52;;;;;;;2.25;0.80;;;;;;;;;;4998215;28;20040;-76
2022/10/02 06:50:18;;;;;;;2.28;0.90;;;;;;;;;;4997091;28;20041;-76
2022/10/02 06:52:44;;;;;;;3.13;1.27;;;;;;;;;;4993722;28;20720;-76
2022/10/02 06:55:20;;;;;;;5.10;2.00;;;;;;;;;;5000166;28;20084;-76
2022/10/02 06:57:47;;;;;;;4.22;1.80;;;;;;;;;;4996833;28;20113;-76
2022/10/02 07:00:16;;;;;;;4.20;1.90;;;;;;;;;;4994404;28;20042;-76
2022/10/02 07:02:46;;;;;;;4.35;1.10;;;;;;;;;;4994798;28;20030;-76
2022/10/02 07:26:14;;;;;;;2.78;0.90;;;;;;;;;;5099570;27;21151;-79
2022/10/02 07:28:42;;;;;;;5.10;1.45;;;;;;;;;;5089788;28;20059;-80
2022/10/02 07:31:11;;;;;;;6.22;1.55;;;;;;;;;;5082465;28;20366;-79
2022/10/02 07:33:37;;;;;;;2.67;1.30;;;;;;;;;;5076844;28;20013;-79
2022/10/02 07:36:09;;;;;;;6.07;1.77;;;;;;;;;;5083818;28;20032;-79
2022/10/02 07:38:53;;;;;;;2.85;1.70;;;;;;;;;;5076382;28;20179;-79
2022/10/02 07:41:28;;;;;;;5.70;1.80;;;;;;;;;;5078570;28;20524;-78
2022/10/02 07:43:54;;;;;;;3.25;1.50;;;;;;;;;;5075719;28;20040;-80
2022/10/02 07:46:20;;;;;;;9.93;5.88;;;;;;;;;;5082175;28;20500;-80
2022/10/02 07:48:52;;;;;;;7.32;4.75;;;;;;;;;;5082088;28;20032;-80
2022/10/02 07:54:16;;;;;;;4.28;2.35;;;;;;;;;;5092506;28;20106;-80
2022/10/02 08:14:10;;;;;;;11.52;1.83;;;;;;;;;;5560977;22;20087;-76
2022/10/02 08:16:42;;;;;;;2.83;1.40;;;;;;;;;;5037430;28;20069;-77
2022/10/02 08:19:12;;;;;;;16.02;2.60;;;;;;;;;;5033360;28;20029;-77
2022/10/02 08:21:40;;;;;;;3.20;1.35;;;;;;;;;;5035261;28;20033;-77
2022/10/02 08:24:12;;;;;;;2.85;1.20;;;;;;;;;;5031443;28;20095;-76
2022/10/02 08:26:50;;;;;;;5.10;1.30;;;;;;;;;;5023158;28;20055;-77
2022/10/02 08:29:30;;;;;;;4.40;1.27;;;;;;;;;;5015419;28;20561;-77
2022/10/02 08:31:56;;;;;;;3.83;1.20;;;;;;;;;;5020923;28;20021;-77
2022/10/02 08:34:23;;;;;;;1.77;0.70;;;;;;;;;;5015419;28;20041;-76
2022/10/02 08:36:59;;;;;;;3.70;1.45;;;;;;;;;;5004748;28;20041;-77
2022/10/02 08:39:34;;;;;;;4.47;1.40;;;;;;;;;;5018403;28;20040;-76
2022/10/02 08:42:03;;;;;;;2.83;1.30;;;;;;;;;;5023289;28;20127;-76
2022/10/02 08:44:41;;;;;;;6.75;1.30;;;;;;;;;;5022304;28;22117;-76
2022/10/02 08:47:16;;;;;;;2.35;0.95;;;;;;;;;;5024518;28;20030;-76
2022/10/02 08:49:45;;;;;;;7.78;1.00;;;;;;;;;;5022526;28;20761;-76
2022/10/02 08:52:30;;;;;;;8.75;1.73;;;;;;;;;;5025607;28;20029;-77
2022/10/02 08:55:02;;;;;;;5.95;1.50;;;;;;;;;;5021622;28;20496;-76
2022/10/02 08:57:28;;;;;;;8.02;1.60;;;;;;;;;;5022640;28;20033;-76
2022/10/02 08:59:54;;;;;;;5.43;1.08;;;;;;;;;;5020742;28;20040;-77
2022/10/02 09:02:29;;;;;;;4.57;0.82;;;;;;;;;;5024137;28;20033;-77
2022/10/02 09:05:14;;;;;;;2.60;0.82;;;;;;;;;;5023678;28;20047;-77
2022/10/02 09:08:00;;;;;;;4.32;1.10;;;;;;;;;;5023000;28;20125;-76
2022/10/02 09:10:26;;;;;;;2.78;0.77;;;;;;;;;;5024555;28;20456;-77
2022/10/02 09:13:11;;;;;;;3.83;1.05;;;;;;;;;;5021529;28;20040;-77
2022/10/02 09:15:56;;;;;;;12.93;1.67;;;;;;;;;;5019873;28;20071;-75
2022/10/02 09:18:30;;;;;;;1.73;0.77;;;;;;;;;;5012598;28;20898;-76
2022/10/02 09:21:17;;;;;;;9.07;1.40;;;;;;;;;;5022875;28;20029;-75
2022/10/02 09:23:54;;;;;;;2.55;0.93;;;;;;;;;;5023905;28;20386;-76
2022/10/02 09:26:35;;;;;;;3.25;1.00;;;;;;;;;;5018369;28;20604;-75
2022/10/02 09:29:25;;;;;;;2.45;1.08;;;;;;;;;;5024529;28;20037;-75
2022/10/02 09:31:53;;;;;;;3.25;1.08;;;;;;;;;;5014701;28;20460;-75
2022/10/02 09:34:33;;;;;;;3.15;0.70;;;;;;;;;;5022585;28;20049;-76
2022/10/02 09:37:06;;;;;;;3.28;0.80;;;;;;;;;;5022192;28;20061;-76
2022/10/02 09:39:44;;;;;;;3.40;1.10;;;;;;;;;;5016880;28;20041;-75
2022/10/02 09:42:14;;;;;;;3.83;1.00;;;;;;;;;;5020579;28;20105;-75
2022/10/02 09:44:58;;;;;;;1.90;0.63;;;;;;;;;;5024147;28;20555;-75
2022/10/02 09:47:24;;;;;;;2.30;1.00;;;;;;;;;;5019734;28;20022;-75
2022/10/02 09:50:29;;;;;;;6.00;1.63;;;;;;;;;;5025291;28;20140;-75
2022/10/02 09:52:55;;;;;;;2.22;0.95;;;;;;;;;;4943077;28;20104;-75
2022/10/02 09:55:41;;;;;;;2.20;0.93;;;;;;;;;;4943845;29;20039;-75
2022/10/02 09:58:07;;;;;;;2.47;0.77;;;;;;;;;;4992037;28;20045;-76
2022/10/02 10:00:37;;;;;;;3.42;0.70;;;;;;;;;;5025764;28;20037;-76
2022/10/02 10:03:27;;;;;;;1.48;0.70;;;;;;;;;;5024122;28;20048;-76
2022/10/02 10:06:02;;;;;;;4.25;0.90;;;;;;;;;;5025239;28;20547;-76
2022/10/02 10:08:49;;;;;;;2.35;0.80;;;;;;;;;;5019232;28;20029;-75
2022/10/02 10:11:54;;;;;;;2.55;0.88;;;;;;;;;;5024145;28;20507;-76
2022/10/02 10:14:39;;;;;;;3.95;1.00;;;;;;;;;;4925986;29;20059;-75
2022/10/02 10:17:12;;;;;;;1.10;0.50;;;;;;;;;;4942615;28;20066;-75
2022/10/02 10:19:44;;;;;;;3.47;0.80;;;;;;;;;;4979063;28;20097;-75
2022/10/02 10:22:10;;;;;;;;;;;;;;;;;;5004154;28;20109;-75
2022/10/02 10:25:00;;;;;;;1.58;0.68;;;;;;;;;;5002702;28;20000;-75
2022/10/02 10:27:29;;;;;;;2.70;0.85;;;;;;;;;;5002347;28;20022;-75
2022/10/02 10:29:58;;;;;;;2.17;0.90;;;;;;;;;;5000959;28;21020;-74
2022/10/02 10:32:48;;;;;;;2.90;0.82;;;;;;;;;;4999374;28;20026;-75
2022/10/02 10:35:20;;;;;;;3.60;0.75;;;;;;;;;;4998985;28;20033;-75
2022/10/02 10:40:37;;;;;;;1.73;0.60;;;;;;;;;;5003990;28;19992;-75
2022/10/02 10:43:03;;;;;;;;;;;;;;;;;;5001950;28;20046;-76
2022/10/02 10:45:33;;;;;;;2.15;0.50;;;;;;;;;;5004457;28;19924;-75
2022/10/02 10:48:18;;;;;;;1.40;0.60;;;;;;;;;;5004775;28;20032;-75
2022/10/02 10:51:02;;;;;;;2.40;0.35;;;;;;;;;;5000535;28;20546;-75
2022/10/02 10:54:04;;;;;;;3.45;0.40;;;;;;;;;;4999831;28;20369;-75
2022/10/02 10:56:44;;;;;;;2.35;0.50;;;;;;;;;;4921203;29;20642;-76
2022/10/02 10:59:20;;;;;;;2.13;0.50;;;;;;;;;;4993132;28;20042;-76
2022/10/02 11:01:52;;;;;;;1.75;0.40;;;;;;;;;;5004399;28;20030;-75
2022/10/02 11:04:45;;;;;;;1.27;0.40;;;;;;;;;;5002109;28;20033;-75
2022/10/02 11:07:12;;;;;;;;;;;;;;;;;;4997283;28;20046;-75
2022/10/02 11:09:38;;;;;;;0.65;0.32;;;;;;;;;;5004597;28;20003;-75
2022/10/02 11:12:20;;;;;;;1.30;0.30;;;;;;;;;;5004066;28;20037;-75
2022/10/02 11:14:46;;;;;;;0.60;0.30;;;;;;;;;;5019581;28;20084;-75
2022/10/02 11:17:18;;;;;;;1.05;0.40;;;;;;;;;;5022244;28;20471;-76
2022/10/02 11:19:56;;;;;;;0.70;0.20;;;;;;;;;;5023375;28;20084;-75
2022/10/02 11:22:45;;;;;;;0.80;0.20;;;;;;;;;;5023200;28;20033;-76
2022/10/02 11:25:14;;;;;;;0.90;0.20;;;;;;;;;;5020962;28;20037;-75
2022/10/02 11:28:03;;;;;;;1.42;0.20;;;;;;;;;;5022055;28;20037;-75
2022/10/02 11:30:35;;;;;;;0.77;0.20;;;;;;;;;;5022409;28;20116;-74
2022/10/02 11:33:11;;;;;;;1.00;0.40;;;;;;;;;;5018805;28;20029;-75
2022/10/02 11:35:47;;;;;;;1.10;0.30;;;;;;;;;;5020494;28;20045;-75
2022/10/02 11:38:34;;;;;;;1.05;0.40;;;;;;;;;;5019882;28;20029;-75
2022/10/02 11:41:32;;;;;;;1.58;0.30;;;;;;;;;;5018199;28;20040;-75
2022/10/02 11:44:08;;;;;;;1.17;0.55;;;;;;;;;;4961509;28;20755;-75
2022/10/02 11:46:43;;;;;;;1.45;0.32;;;;;;;;;;5022173;28;20037;-75
2022/10/02 11:49:12;;;;;;;0.80;0.20;;;;;;;;;;5018969;28;20049;-75
2022/10/02 11:51:38;;;;;;;9.50;1.48;;;;;;;;;;5022442;28;20034;-75
2022/10/02 11:54:04;;;;;;;0.45;0.20;;;;;;;;;;5021909;28;20044;-75
2022/10/02 11:56:38;;;;;;;1.30;0.30;;;;;;;;;;5024401;28;20037;-75
2022/10/02 11:59:17;;;;;;;1.10;0.30;;;;;;;;;;5023589;28;20048;-76
2022/10/02 12:01:52;;;;;;;0.50;0.20;;;;;;;;;;5021780;28;20503;-75
2022/10/02 12:04:33;;;;;;;0.52;0.20;;;;;;;;;;5025004;28;20120;-75
2022/10/02 12:07:11;;;;;;;0.93;0.30;;;;;;;;;;5027929;28;20036;-75
2022/10/02 12:09:56;;;;;;;1.00;0.30;;;;;;;;;;5026964;28;20034;-75
2022/10/02 12:12:40;;;;;;;0.47;0.20;;;;;;;;;;5027626;28;20028;-75
2022/10/02 12:15:20;;;;;;;0.65;0.20;;;;;;;;;;5024946;28;20053;-75
2022/10/02 12:18:05;;;;;;;0.75;0.30;;;;;;;;;;5026532;28;20709;-75
2022/10/02 12:29:18;;;;;;;0.88;0.20;;;;;;;;;;5025287;28;20036;-75
2022/10/02 12:31:50;;;;;;;0.85;0.20;;;;;;;;;;5022494;28;20029;-75
2022/10/02 12:34:19;;;;;;;4.53;0.20;;;;;;;;;;5025931;28;20069;-75
2022/10/02 12:36:55;;;;;;;1.65;0.20;;;;;;;;;;5025718;28;20060;-75
2022/10/02 12:39:27;;;;;;;2.67;0.73;;;;;;;;;;5025949;28;20426;-75
2022/10/02 12:42:12;;;;;;;0.50;0.20;;;;;;;;;;5022373;28;20088;-75
2022/10/02 12:44:44;;;;;;;0.70;0.30;;;;;;;;;;5023854;28;20112;-75
2022/10/02 12:47:29;;;;;;;9.48;5.78;;;;;;;;;;5026662;28;20456;-75
2022/10/02 12:50:07;;;;;;;7.60;4.22;;;;;;;;;;5024187;28;20029;-75
2022/10/02 12:52:46;;;;;;;2.60;0.60;;;;;;;;;;5025789;28;20048;-75
2022/10/02 12:55:32;;;;;;;2.05;0.40;;;;;;;;;;5026655;28;20033;-75
2022/10/02 12:58:00;;;;;;;0.52;0.30;;;;;;;;;;5021763;28;20092;-75
2022/10/02 13:00:55;;;;;;;1.63;0.45;;;;;;;;;;5024571;28;20034;-75
2022/10/02 13:03:23;;;;;;;3.15;0.30;;;;;;;;;;5022512;28;20041;-75
2022/10/02 13:05:50;;;;;;;0.88;0.30;;;;;;;;;;5025962;28;20045;-75
2022/10/02 13:08:34;;;;;;;2.22;0.20;;;;;;;;;;5025377;28;20472;-75
2022/10/02 13:11:00;;;;;;;0.45;0.30;;;;;;;;;;5023769;28;20022;-75
2022/10/02 13:13:44;;;;;;;0.80;0.40;;;;;;;;;;5023440;28;20060;-75
2022/10/02 13:16:26;;;;;;;3.30;0.30;;;;;;;;;;5023597;28;20095;-75
2022/10/02 13:18:52;;;;;;;0.63;0.30;;;;;;;;;;5023979;28;20042;-75
2022/10/02 13:21:22;;;;;;;0.82;0.40;;;;;;;;;;5023976;28;20079;-75
2022/10/02 13:23:48;;;;;;;1.23;0.20;;;;;;;;;;5019624;28;20038;-75
2022/10/02 13:26:21;;;;;;;1.85;0.30;;;;;;;;;;5024345;28;20083;-75
2022/10/02 13:28:52;;;;;;;3.97;0.43;;;;;;;;;;5025211;28;20045;-75
2022/10/02 13:31:18;;;;;;;2.40;0.40;;;;;;;;;;5024189;28;20071;-75
2022/10/02 13:34:04;;;;;;;2.97;0.45;;;;;;;;;;5026100;28;20729;-75
2022/10/02 13:36:42;;;;;;;1.73;0.52;;;;;;;;;;5024938;28;20460;-75
2022/10/02 13:39:32;;;;;;;1.60;0.40;;;;;;;;;;5020288;28;20056;-75
2022/10/02 13:42:22;;;;;;;1.40;0.57;;;;;;;;;;5009824;28;20041;-75
2022/10/02 13:45:07;;;;;;;0.95;0.30;;;;;;;;;;5015811;28;20545;-76
2022/10/02 13:47:33;;;;;;;0.40;0.20;;;;;;;;;;5023912;28;20498;-75
2022/10/02 13:49:59;;;;;;;4.68;0.40;;;;;;;;;;5024136;28;20029;-75
2022/10/02 13:52:43;;;;;;;1.40;0.30;;;;;;;;;;5022611;28;20091;-76
2022/10/02 13:55:22;;;;;;;0.15;0.13;;;;;;;;;;5022622;28;20055;-75
2022/10/02 13:57:48;;;;;;;1.25;0.20;;;;;;;;;;5025254;28;20505;-75
2022/10/02 14:00:33;;;;;;;4.43;0.22;;;;;;;;;;5025013;28;20033;-75
2022/10/02 14:03:18;;;;;;;2.25;0.20;;;;;;;;;;5023956;28;20061;-75
2022/10/02 14:05:51;;;;;;;0.98;0.20;;;;;;;;;;5025910;28;20069;-75
2022/10/02 14:08:30;;;;;;;0.90;0.30;;;;;;;;;;5020319;28;20029;-75
2022/10/02 14:11:06;;;;;;;1.17;0.28;;;;;;;;;;5025018;28;20467;-75
2022/10/02 14:13:48;;;;;;;0.73;0.20;;;;;;;;;;5023592;28;20136;-75
2022/10/02 14:16:18;;;;;;;2.30;0.20;;;;;;;;;;5023269;28;20030;-75
2022/10/02 14:18:50;;;;;;;6.93;0.38;;;;;;;;;;5025477;28;20460;-75
2022/10/02 14:21:19;;;;;;;2.50;0.32;;;;;;;;;;5022446;28;20399;-75
2022/10/02 14:23:51;;;;;;;1.17;0.20;;;;;;;;;;5025142;28;20041;-75
2022/10/02 14:26:26;;;;;;;0.52;0.20;;;;;;;;;;5022405;28;20505;-75
2022/10/02 14:28:52;;;;;;;0.93;0.20;;;;;;;;;;5024165;28;20037;-75
2022/10/02 14:31:21;;;;;;;3.20;0.20;;;;;;;;;;5023386;28;20040;-75
2022/10/02 14:34:08;;;;;;;0.93;0.20;;;;;;;;;;5025271;28;20029;-75
2022/10/02 14:36:34;;;;;;;0.75;0.30;;;;;;;;;;5019409;28;20030;-75
2022/10/02 14:39:07;;;;;;;0.80;0.22;;;;;;;;;;5023096;28;20427;-75
2022/10/02 14:41:33;;;;;;;1.35;0.40;;;;;;;;;;5022339;28;20110;-75
2022/10/02 14:44:17;;;;;;;3.08;0.30;;;;;;;;;;5022893;28;20117;-75
2022/10/02 14:47:00;;;;;;;0.73;0.30;;;;;;;;;;5015985;28;20061;-75
2022/10/02 14:49:35;;;;;;;0.80;0.20;;;;;;;;;;5022586;28;20021;-76
2022/10/02 14:52:17;;;;;;;5.68;0.32;;;;;;;;;;5022795;28;20037;-75
2022/10/02 14:54:58;;;;;;;3.08;0.43;;;;;;;;;;5024476;28;20116;-75
2022/10/02 14:57:50;;;;;;;1.00;0.40;;;;;;;;;;5023103;28;20045;-75
2022/10/02 15:00:23;;;;;;;0.28;0.20;;;;;;;;;;5019692;28;20049;-75
2022/10/02 15:02:55;;;;;;;2.67;0.30;;;;;;;;;;5019835;28;20037;-74
2022/10/02 15:05:35;;;;;;;4.78;0.55;;;;;;;;;;5023643;28;20098;-75
2022/10/02 15:08:04;;;;;;;0.73;0.30;;;;;;;;;;5020047;28;20029;-75
2022/10/02 15:10:34;;;;;;;3.88;0.50;;;;;;;;;;5020447;28;20431;-74
2022/10/02 15:13:13;;;;;;;2.10;0.30;;;;;;;;;;5021046;28;20049;-74
2022/10/02 15:15:42;;;;;;;3.60;0.28;;;;;;;;;;5016084;28;20048;-74
2022/10/02 15:18:27;;;;;;;3.83;0.40;;;;;;;;;;5021918;28;20095;-75
2022/10/02 15:20:59;;;;;;;0.68;0.32;;;;;;;;;;5023717;28;20029;-75
2022/10/02 15:23:43;;;;;;;1.48;0.30;;;;;;;;;;5023555;28;20060;-75
2022/10/02 15:26:21;;;;;;;1.13;0.30;;;;;;;;;;5019797;28;20069;-75
2022/10/02 15:28:59;;;;;;;3.30;0.30;;;;;;;;;;5008832;28;20367;-75
2022/10/02 15:31:43;;;;;;;1.70;0.30;;;;;;;;;;5020411;28;20029;-75
2022/10/02 15:34:09;;;;;;;1.25;0.30;;;;;;;;;;5022232;28;20490;-74
2022/10/02 15:37:00;;;;;;;0.80;0.20;;;;;;;;;;5025941;28;20038;-75
2022/10/02 15:39:28;;;;;;;1.45;0.20;;;;;;;;;;5025736;28;20176;-75
2022/10/02 15:42:05;;;;;;;1.10;0.20;;;;;;;;;;5020145;28;20073;-74
2022/10/02 15:44:43;;;;;;;1.15;0.20;;;;;;;;;;5025878;28;20655;-74
2022/10/02 15:47:34;;;;;;;2.08;0.50;;;;;;;;;;5025304;28;20033;-75
2022/10/02 15:50:23;;;;;;;1.17;0.30;;;;;;;;;;5026639;28;20604;-74
2022/10/02 15:52:55;;;;;;;2.83;0.50;;;;;;;;;;5027329;28;20807;-74
2022/10/02 15:55:40;;;;;;;4.72;0.30;;;;;;;;;;5027181;28;20029;-74
2022/10/02 15:58:23;;;;;;;3.45;0.30;;;;;;;;;;5028687;28;20041;-74
2022/10/02 16:01:01;;;;;;;2.03;0.40;;;;;;;;;;5027030;28;20125;-74
2022/10/02 16:03:45;;;;;;;3.92;0.38;;;;;;;;;;5027384;28;20041;-74
2022/10/02 16:06:30;;;;;;;2.42;0.35;;;;;;;;;;5024162;28;20765;-74
2022/10/02 16:09:14;;;;;;;2.47;0.32;;;;;;;;;;5024705;28;20530;-74
2022/10/02 16:11:51;;;;;;;0.65;0.30;;;;;;;;;;5026783;28;20033;-74
2022/10/02 16:14:35;;;;;;;6.45;0.43;;;;;;;;;;5022073;28;20080;-75
2022/10/02 16:17:01;;;;;;;1.40;0.32;;;;;;;;;;5025813;28;20040;-75
2022/10/02 16:19:36;;;;;;;1.52;0.43;;;;;;;;;;5027230;28;20029;-75